createdAt,value
2018-12-17T00:02:19.365Z,16.80
2018-12-17T00:05:24.498Z,17.40
2018-12-17T00:08:32.143Z,16.80
2018-12-17T00:11:34.906Z,17.83
2018-12-17T00:14:37.858Z,16.63
2018-12-17T00:17:40.809Z,18.33
2018-12-17T00:20:44.935Z,19.23
2018-12-17T00:23:47.907Z,18.10
2018-12-17T00:26:51.127Z,17.93
2018-12-17T00:29:55.098Z,19.00
2018-12-17T00:32:58.050Z,18.37
2018-12-17T00:36:01.030Z,18.17
2018-12-17T00:39:06.354Z,18.10
2018-12-17T00:42:10.466Z,19.60
2018-12-17T00:45:13.569Z,18.23
2018-12-17T00:48:16.773Z,18.83
2018-12-17T00:51:20.278Z,18.43
2018-12-17T00:54:23.478Z,18.83
2018-12-17T00:57:26.421Z,19.50
2018-12-17T01:00:29.382Z,19.40
2018-12-17T01:03:32.365Z,17.30
2018-12-17T01:06:35.604Z,18.33
2018-12-17T01:09:38.571Z,18.23
2018-12-17T01:12:41.541Z,17.53
2018-12-17T01:15:44.522Z,17.97
2018-12-17T01:18:47.647Z,18.97
2018-12-17T01:21:50.746Z,18.03
2018-12-17T01:24:53.734Z,18.93
2018-12-17T01:27:56.697Z,19.87
2018-12-17T01:30:59.646Z,19.13
2018-12-17T01:34:02.623Z,17.70
2018-12-17T01:37:05.578Z,19.87
2018-12-17T01:40:08.681Z,19.63
2018-12-17T01:43:12.621Z,20.03
2018-12-17T01:46:15.593Z,18.70
2018-12-17T01:49:18.546Z,18.57
2018-12-17T01:52:21.506Z,19.30
2018-12-17T01:55:24.454Z,17.97
2018-12-17T01:58:29.363Z,19.70
2018-12-17T02:01:32.562Z,19.30
2018-12-17T02:04:35.701Z,19.50
2018-12-17T02:07:38.655Z,18.73
2018-12-17T02:10:41.754Z,20.33
2018-12-17T02:13:44.974Z,19.87
2018-12-17T02:16:47.958Z,19.00
2018-12-17T02:19:50.938Z,19.47
2018-12-17T02:22:54.207Z,19.77
2018-12-17T02:25:57.157Z,20.53
2018-12-17T02:29:00.394Z,20.43
2018-12-17T02:32:03.389Z,20.43
2018-12-17T02:35:06.758Z,20.73
2018-12-17T02:38:09.711Z,20.40
2018-12-17T02:41:12.690Z,20.60
2018-12-17T02:44:16.813Z,22.27
2018-12-17T02:47:19.919Z,21.00
2018-12-17T02:50:22.895Z,21.10
2018-12-17T02:53:26.670Z,22.17
2018-12-17T02:56:29.635Z,23.90
2018-12-17T02:59:32.731Z,21.57
2018-12-17T03:02:35.684Z,22.87
2018-12-17T03:05:38.779Z,20.43
2018-12-17T03:08:41.741Z,22.00
2018-12-17T03:11:44.745Z,20.83
2018-12-17T03:14:47.782Z,20.47
2018-12-17T03:17:51.238Z,20.63
2018-12-17T03:20:54.168Z,22.37
2018-12-17T03:23:57.155Z,22.37
2018-12-17T03:27:00.110Z,21.40
2018-12-17T03:30:04.007Z,22.27
2018-12-17T03:33:06.968Z,22.23
2018-12-17T03:39:41.975Z,21.33
2018-12-17T03:42:44.962Z,21.87
2018-12-17T03:45:47.923Z,22.10
2018-12-17T03:48:50.866Z,22.23
2018-12-17T03:51:54.009Z,23.17
2018-12-17T03:54:57.202Z,23.53
2018-12-17T03:58:00.400Z,24.27
2018-12-17T04:01:03.592Z,24.13
2018-12-17T04:04:06.788Z,22.53
2018-12-17T04:07:09.982Z,21.67
2018-12-17T04:10:13.283Z,22.53
2018-12-17T04:13:16.481Z,24.30
2018-12-17T04:16:19.670Z,23.83
2018-12-17T04:19:23.479Z,24.20
2018-12-17T04:22:26.709Z,22.80
2018-12-17T04:25:29.869Z,24.00
2018-12-17T04:28:33.213Z,24.57
2018-12-17T04:31:36.366Z,24.40
2018-12-17T04:34:39.594Z,23.87
2018-12-17T04:37:42.754Z,23.87
2018-12-17T04:40:46.042Z,23.23
2018-12-17T04:43:49.245Z,25.00
2018-12-17T04:46:52.446Z,23.87
2018-12-17T04:49:55.635Z,23.20
2018-12-17T04:52:58.833Z,23.93
2018-12-17T04:56:02.001Z,23.33
2018-12-17T04:59:05.222Z,24.10
2018-12-17T05:02:08.419Z,22.60
2018-12-17T05:05:11.609Z,24.07
2018-12-17T05:08:14.910Z,21.37
2018-12-17T05:11:18.103Z,22.37
2018-12-17T05:14:21.301Z,22.97
2018-12-17T05:17:24.597Z,22.63
2018-12-17T05:20:27.794Z,23.00
2018-12-17T05:23:30.985Z,22.70
2018-12-17T05:26:34.158Z,22.53
2018-12-17T05:29:37.385Z,23.37
2018-12-17T05:32:40.571Z,22.47
2018-12-17T05:35:43.765Z,23.50
2018-12-17T05:38:46.965Z,23.67
2018-12-17T05:41:50.157Z,22.83
2018-12-17T05:44:53.350Z,24.47
2018-12-17T05:47:56.650Z,23.97
2018-12-17T05:50:59.842Z,24.17
2018-12-17T05:54:03.038Z,23.73
2018-12-17T05:57:06.337Z,24.00
2018-12-17T06:00:09.579Z,24.33
2018-12-17T06:03:12.831Z,24.17
2018-12-17T06:06:16.233Z,24.87
2018-12-17T06:09:19.770Z,24.30
2018-12-17T06:12:22.927Z,23.87
2018-12-17T06:15:26.122Z,24.40
2018-12-17T06:18:29.421Z,23.40
2018-12-17T06:21:32.610Z,22.70
2018-12-17T06:24:35.808Z,24.43
2018-12-17T06:27:39.083Z,23.77
2018-12-17T06:30:42.302Z,24.43
2018-12-17T06:33:45.500Z,24.03
2018-12-17T06:36:48.672Z,23.80
2018-12-17T06:39:51.894Z,23.73
2018-12-17T06:42:55.063Z,22.80
2018-12-17T06:45:58.278Z,22.97
2018-12-17T06:49:01.471Z,24.73
2018-12-17T06:52:04.702Z,24.87
2018-12-17T06:55:07.966Z,24.23
2018-12-17T06:58:11.506Z,24.70
2018-12-17T07:01:14.662Z,24.63
2018-12-17T07:04:17.861Z,24.57
2018-12-17T07:07:21.054Z,25.07
2018-12-17T07:10:24.249Z,24.80
2018-12-17T07:13:27.546Z,25.23
2018-12-17T07:16:30.765Z,25.90
2018-12-17T07:19:33.968Z,24.43
2018-12-17T07:22:37.134Z,24.47
2018-12-17T07:25:40.475Z,24.50
2018-12-17T07:28:43.628Z,23.33
2018-12-17T07:31:46.845Z,23.37
2018-12-17T07:34:50.366Z,24.13
2018-12-17T07:37:53.669Z,24.03
2018-12-17T07:40:56.810Z,24.67
2018-12-17T07:44:00.049Z,24.13
2018-12-17T07:47:03.205Z,22.73
2018-12-17T07:50:07.039Z,23.37
2018-12-17T07:53:10.326Z,24.50
2018-12-17T07:56:13.535Z,23.47
2018-12-17T07:59:16.702Z,21.63
2018-12-17T08:02:20.855Z,25.13
2018-12-17T08:05:24.029Z,25.00
2018-12-17T08:08:27.239Z,24.87
2018-12-17T08:11:30.406Z,22.67
2018-12-17T08:14:33.742Z,24.60
2018-12-17T08:17:36.897Z,25.57
2018-12-17T08:20:40.133Z,23.93
2018-12-17T08:23:43.730Z,24.53
2018-12-17T08:26:46.922Z,23.97
2018-12-17T08:29:50.541Z,24.27
2018-12-17T08:32:54.045Z,23.40
2018-12-17T08:35:57.198Z,27.40
2018-12-17T08:39:00.422Z,24.90
2018-12-17T08:42:04.149Z,27.47
2018-12-17T08:45:07.566Z,25.27
2018-12-17T08:48:11.302Z,24.83
2018-12-17T08:51:14.734Z,24.93
2018-12-17T08:54:18.005Z,25.53
2018-12-17T08:57:21.233Z,24.83
2018-12-17T09:00:24.390Z,24.97
2018-12-17T09:03:27.618Z,25.77
2018-12-17T09:06:30.814Z,24.40
2018-12-17T09:09:35.756Z,24.03
2018-12-17T09:12:39.238Z,28.67
2018-12-17T09:15:42.445Z,27.63
2018-12-17T09:18:45.714Z,25.87
2018-12-17T09:21:48.954Z,25.70
2018-12-17T09:24:52.104Z,24.80
2018-12-17T09:27:55.622Z,23.67
2018-12-17T09:30:58.798Z,24.70
2018-12-17T09:34:02.350Z,23.47
2018-12-17T09:37:05.497Z,23.80
2018-12-17T09:40:08.889Z,24.10
2018-12-17T09:43:12.093Z,25.30
2018-12-17T09:46:15.482Z,25.17
2018-12-17T09:49:30.963Z,25.07
2018-12-17T09:52:34.243Z,26.00
2018-12-17T09:55:37.411Z,24.20
2018-12-17T09:58:40.670Z,23.67
2018-12-17T10:01:43.903Z,24.17
2018-12-17T10:04:47.119Z,24.57
2018-12-17T10:07:50.389Z,25.40
2018-12-17T10:10:53.943Z,24.50
2018-12-17T10:13:57.186Z,23.60
2018-12-17T10:17:01.129Z,24.23
2018-12-17T10:20:04.812Z,25.37
2018-12-17T10:23:08.451Z,26.70
2018-12-17T10:26:11.852Z,25.53
2018-12-17T10:29:15.045Z,25.03
2018-12-17T10:32:18.195Z,23.67
2018-12-17T10:35:21.762Z,25.10
2018-12-17T10:38:25.001Z,24.60
2018-12-17T10:41:28.223Z,24.50
2018-12-17T10:44:33.431Z,23.73
2018-12-17T10:47:37.088Z,24.07
2018-12-17T10:50:40.335Z,24.37
2018-12-17T10:53:43.563Z,24.70
2018-12-17T10:56:46.849Z,24.47
2018-12-17T10:59:50.779Z,24.60
2018-12-17T11:02:56.294Z,24.97
2018-12-17T11:06:02.390Z,23.13
2018-12-17T11:09:07.698Z,24.27
2018-12-17T11:12:12.939Z,24.13
2018-12-17T11:15:16.679Z,24.73
2018-12-17T11:18:19.942Z,23.90
2018-12-17T11:21:23.184Z,24.37
2018-12-17T11:24:26.535Z,24.70
2018-12-17T11:27:29.735Z,23.23
2018-12-17T11:30:32.930Z,24.63
2018-12-17T11:33:36.114Z,24.57
2018-12-17T11:36:39.399Z,25.73
2018-12-17T11:39:42.718Z,24.27
2018-12-17T11:42:45.915Z,24.53
2018-12-17T11:45:49.124Z,24.40
2018-12-17T11:48:52.335Z,23.40
2018-12-17T11:51:55.491Z,23.03
2018-12-17T11:54:58.686Z,24.00
2018-12-17T11:58:10.051Z,24.43
2018-12-17T12:01:15.873Z,25.60
2018-12-17T12:04:19.094Z,24.10
2018-12-17T12:07:22.329Z,24.23
2018-12-17T12:10:25.985Z,24.90
2018-12-17T12:13:29.236Z,25.70
2018-12-17T12:16:32.527Z,24.67
2018-12-17T12:19:35.818Z,25.63
2018-12-17T12:22:39.133Z,25.40
2018-12-17T12:25:42.414Z,26.63
2018-12-17T12:28:45.757Z,24.20
2018-12-17T12:31:49.003Z,24.83
2018-12-17T12:34:52.343Z,25.27
2018-12-17T12:37:55.611Z,25.07
2018-12-17T12:40:58.839Z,24.90
2018-12-17T12:44:08.670Z,26.23
2018-12-17T12:47:08.255Z,26.33
2018-12-17T12:50:11.454Z,26.70
2018-12-17T12:53:14.679Z,25.20
2018-12-17T12:56:17.847Z,24.70
2018-12-17T12:59:21.161Z,24.67
2018-12-17T13:02:24.329Z,25.57
2018-12-17T13:05:27.555Z,24.43
2018-12-17T13:08:32.302Z,26.20
2018-12-17T13:11:35.691Z,26.40
2018-12-17T13:14:38.853Z,26.17
2018-12-17T13:17:42.078Z,25.70
2018-12-17T13:20:46.271Z,25.27
2018-12-17T13:23:49.621Z,27.57
2018-12-17T13:26:52.964Z,25.70
2018-12-17T13:29:56.187Z,26.80
2018-12-17T13:32:59.358Z,27.00
2018-12-17T13:36:03.617Z,25.00
2018-12-17T13:39:07.274Z,27.70
2018-12-17T13:42:11.623Z,25.77
2018-12-17T13:45:14.858Z,25.37
2018-12-17T13:48:18.230Z,24.23
2018-12-17T13:51:27.035Z,25.60
2018-12-17T13:54:30.225Z,26.67
2018-12-17T13:57:33.426Z,25.40
2018-12-17T14:00:36.643Z,28.03
2018-12-17T14:03:47.599Z,24.93
2018-12-17T14:06:50.827Z,27.23
2018-12-17T14:09:59.587Z,24.93
2018-12-17T14:13:03.019Z,27.30
2018-12-17T14:16:11.742Z,27.47
2018-12-17T14:19:22.254Z,24.83
2018-12-17T14:22:25.487Z,26.73
2018-12-17T14:25:28.716Z,24.97
2018-12-17T14:28:31.879Z,28.07
2018-12-17T14:31:35.274Z,27.60
2018-12-17T14:34:38.474Z,26.83
2018-12-17T14:37:47.124Z,25.97
2018-12-17T14:40:50.287Z,26.37
2018-12-17T14:43:55.735Z,26.57
2018-12-17T14:46:59.328Z,26.73
2018-12-17T14:50:02.544Z,25.97
2018-12-17T14:53:05.999Z,26.40
2018-12-17T14:56:09.226Z,26.40
2018-12-17T14:59:12.477Z,29.03
2018-12-17T15:02:15.723Z,26.13
2018-12-17T15:05:19.028Z,26.80
2018-12-17T15:08:22.227Z,26.83
2018-12-17T15:11:25.455Z,34.17
2018-12-17T15:14:29.452Z,30.63
2018-12-17T15:17:33.288Z,27.57
2018-12-17T15:20:36.526Z,26.13
2018-12-17T15:23:39.764Z,26.57
2018-12-17T15:26:43.048Z,26.73
2018-12-17T15:29:46.347Z,27.83
2018-12-17T15:32:49.515Z,27.60
2018-12-17T15:35:52.842Z,25.87
2018-12-17T15:38:56.007Z,26.93
2018-12-17T15:41:59.194Z,27.97
2018-12-17T15:45:02.395Z,28.43
2018-12-17T15:48:05.693Z,27.07
2018-12-17T15:51:09.493Z,25.63
2018-12-17T15:54:12.650Z,27.97
2018-12-17T15:57:15.885Z,26.63
2018-12-17T16:00:19.041Z,26.80
2018-12-17T16:03:22.367Z,26.30
2018-12-17T16:06:25.543Z,27.70
2018-12-17T16:09:28.726Z,26.43
2018-12-17T16:12:31.922Z,26.93
2018-12-17T16:15:35.116Z,28.60
2018-12-17T16:18:38.419Z,27.00
2018-12-17T16:21:41.801Z,27.10
2018-12-17T16:24:45.003Z,27.60
2018-12-17T16:27:48.216Z,27.70
2018-12-17T16:30:52.622Z,27.03
2018-12-17T16:33:55.821Z,29.40
2018-12-17T16:36:59.034Z,28.80
2018-12-17T16:40:02.210Z,28.73
2018-12-17T16:43:06.429Z,27.33
2018-12-17T16:46:09.627Z,27.60
2018-12-17T16:49:12.816Z,28.77
2018-12-17T16:52:16.017Z,26.53
2018-12-17T16:55:19.217Z,27.17
2018-12-17T16:58:22.413Z,26.37
2018-12-17T17:01:25.598Z,27.03
2018-12-17T17:04:28.798Z,28.10
2018-12-17T17:07:31.989Z,25.77
2018-12-17T17:10:35.189Z,25.23
2018-12-17T17:13:38.365Z,26.10
2018-12-17T17:16:41.591Z,25.57
2018-12-17T17:19:50.634Z,24.43
2018-12-17T17:22:49.916Z,25.17
2018-12-17T17:25:53.107Z,26.53
2018-12-17T17:28:56.308Z,29.97
2018-12-17T17:31:59.497Z,30.77
2018-12-17T17:35:02.693Z,26.30
2018-12-17T17:38:07.018Z,35.70
2018-12-17T17:41:10.210Z,28.47
2018-12-17T17:44:13.302Z,29.57
2018-12-17T17:47:16.507Z,25.43
2018-12-17T17:50:19.693Z,28.83
2018-12-17T17:53:22.989Z,37.60
2018-12-17T17:56:26.293Z,39.20
2018-12-17T17:59:29.482Z,39.13
2018-12-17T18:02:32.677Z,27.43
2018-12-17T18:05:35.874Z,25.17
2018-12-17T18:08:39.131Z,24.07
2018-12-17T18:11:42.366Z,24.67
2018-12-17T18:14:45.664Z,27.27
2018-12-17T18:17:48.870Z,32.47
2018-12-17T18:20:52.053Z,30.83
2018-12-17T18:23:55.246Z,28.00
2018-12-17T18:26:58.446Z,25.30
2018-12-17T18:30:01.729Z,24.57
2018-12-17T18:33:04.945Z,26.07
2018-12-17T18:36:08.164Z,26.37
2018-12-17T18:39:11.677Z,26.53
2018-12-17T18:42:15.890Z,25.77
2018-12-17T18:45:19.154Z,25.80
2018-12-17T18:48:22.962Z,24.50
2018-12-17T18:51:26.254Z,26.00
2018-12-17T18:54:29.546Z,26.00
2018-12-17T18:57:32.750Z,25.00
2018-12-17T19:00:35.978Z,24.73
2018-12-17T19:03:39.141Z,25.80
2018-12-17T19:06:42.488Z,25.97
2018-12-17T19:09:45.642Z,27.03
2018-12-17T19:12:49.478Z,26.63
2018-12-17T19:15:52.638Z,37.30
2018-12-17T19:18:55.869Z,26.80
2018-12-17T19:21:59.026Z,25.27
2018-12-17T19:25:02.253Z,24.27
2018-12-17T19:28:05.825Z,25.63
2018-12-17T19:31:09.302Z,26.20
2018-12-17T19:34:12.525Z,25.23
2018-12-17T19:37:15.849Z,24.40
2018-12-17T19:40:19.017Z,25.80
2018-12-17T19:43:22.246Z,25.33
2018-12-17T19:46:25.410Z,25.63
2018-12-17T19:49:28.637Z,26.47
2018-12-17T19:52:31.793Z,27.10
2018-12-17T19:55:35.021Z,28.80
2018-12-17T19:58:38.286Z,25.90
2018-12-17T20:01:41.633Z,25.80
2018-12-17T20:04:44.799Z,25.50
2018-12-17T20:07:48.122Z,26.43
2018-12-17T20:10:51.262Z,26.07
2018-12-17T20:13:55.742Z,25.83
2018-12-17T20:16:58.897Z,25.90
2018-12-17T20:20:03.268Z,25.87
2018-12-17T20:23:06.514Z,25.77
2018-12-17T20:26:09.745Z,24.93
2018-12-17T20:29:12.906Z,26.07
2018-12-17T20:32:16.133Z,25.80
2018-12-17T20:35:20.414Z,27.73
2018-12-17T20:38:23.692Z,27.27
2018-12-17T20:41:26.913Z,26.90
2018-12-17T20:44:30.143Z,27.00
2018-12-17T20:47:33.302Z,27.93
2018-12-17T20:50:36.638Z,26.30
2018-12-17T20:53:39.778Z,28.87
2018-12-17T20:56:43.838Z,27.77
2018-12-17T20:59:47.214Z,27.97
2018-12-17T21:02:50.553Z,27.03
2018-12-17T21:05:53.709Z,28.47
2018-12-17T21:08:56.930Z,27.07
2018-12-17T21:12:00.097Z,27.43
2018-12-17T21:15:03.765Z,26.63
2018-12-17T21:18:06.978Z,25.57
2018-12-17T21:21:10.225Z,26.20
2018-12-17T21:24:13.385Z,27.57
2018-12-17T21:27:16.653Z,27.03
2018-12-17T21:30:19.777Z,26.23
2018-12-17T21:33:23.008Z,27.10
2018-12-17T21:36:27.294Z,26.63
2018-12-17T21:39:30.642Z,26.63
2018-12-17T21:42:33.786Z,28.40
2018-12-17T21:45:37.182Z,27.67
2018-12-17T21:48:40.386Z,28.20
2018-12-17T21:51:43.929Z,27.17
2018-12-17T21:54:47.077Z,27.53
2018-12-17T21:57:50.154Z,27.23
2018-12-17T22:00:53.313Z,26.37
2018-12-17T22:03:56.657Z,27.63
2018-12-17T22:06:59.818Z,28.67
2018-12-17T22:10:03.593Z,26.07
2018-12-17T22:13:06.816Z,27.37
2018-12-17T22:16:11.732Z,29.07
2018-12-17T22:19:15.068Z,27.47
2018-12-17T22:22:18.381Z,28.20
2018-12-17T22:25:21.537Z,27.70
2018-12-17T22:28:24.887Z,29.20
2018-12-17T22:31:28.141Z,27.63
2018-12-17T22:34:32.385Z,29.07
2018-12-17T22:37:35.525Z,28.57
2018-12-17T22:40:39.273Z,26.40
2018-12-17T22:43:42.452Z,26.60
2018-12-17T22:46:45.793Z,26.87
2018-12-17T22:49:48.942Z,26.97
2018-12-17T22:52:52.197Z,27.60
2018-12-17T22:55:55.417Z,27.30
2018-12-17T22:58:58.884Z,28.50
2018-12-17T23:02:02.030Z,28.20
2018-12-17T23:05:05.785Z,28.53
2018-12-17T23:08:08.926Z,26.20
2018-12-17T23:11:23.394Z,29.07
2018-12-17T23:14:37.849Z,29.27
2018-12-17T23:17:41.561Z,27.57
2018-12-17T23:20:44.749Z,26.73
2018-12-17T23:23:49.996Z,26.93
2018-12-17T23:26:53.202Z,26.90
2018-12-17T23:29:56.381Z,29.37
2018-12-17T23:32:59.581Z,31.10
2018-12-17T23:36:02.706Z,29.17
2018-12-17T23:39:07.006Z,30.20
2018-12-17T23:42:11.320Z,28.43
2018-12-17T23:45:18.813Z,28.60
2018-12-17T23:48:22.010Z,28.10
2018-12-17T23:51:25.206Z,27.97
2018-12-17T23:54:28.378Z,28.87
2018-12-17T23:57:31.603Z,29.67
